Time,TemperatureF,DewpointF,PressureIn,WindDirection,WindDirectionDegrees,WindSpeedMPH,WindSpeedGustMPH,Humidity,HourlyPrecipIn,Conditions,Clouds,dailyrainin,SoftwareType,DateUTC
2013-07-08 00:00:00,74.7,74.1,29.85,East,89,0.0,1.0,98,0.00,,---,0.00,VWS V14.00,2013-07-08 04:00:00,
2013-07-08 00:01:00,74.7,74.1,29.85,East,89,0.0,1.0,98,0.00,,---,0.00,VWS V14.00,2013-07-08 04:01:00,
2013-07-08 00:06:00,74.6,74.0,29.84,East,89,0.0,0.0,98,0.00,,---,0.00,VWS V14.00,2013-07-08 04:06:00,
2013-07-08 00:11:00,74.6,74.0,29.84,East,89,0.0,0.0,98,0.00,,---,0.00,VWS V14.00,2013-07-08 04:11:00,
2013-07-08 00:16:00,74.6,74.0,29.83,East,89,0.0,1.0,98,0.00,,---,0.00,VWS V14.00,2013-07-08 04:16:00,
2013-07-08 00:21:00,74.6,74.0,29.83,East,89,0.0,1.0,98,0.00,,---,0.00,VWS V14.00,2013-07-08 04:21:00,
2013-07-08 00:26:00,74.6,74.0,29.83,East,89,0.0,1.0,98,0.00,,---,0.00,VWS V14.00,2013-07-08 04:26:00,
2013-07-08 00:31:00,74.6,74.0,29.83,East,89,0.0,1.0,98,0.00,,---,0.00,VWS V14.00,2013-07-08 04:31:00,
2013-07-08 00:36:00,74.6,74.0,29.83,East,88,0.0,0.0,98,0.00,,---,0.00,VWS V14.00,2013-07-08 04:36:00,
2013-07-08 00:41:00,74.4,73.8,29.83,East,88,0.0,0.0,98,0.00,,---,0.00,VWS V14.00,2013-07-08 04:41:00,
2013-07-08 00:46:00,74.4,73.8,29.83,East,89,0.0,0.0,98,0.00,,---,0.00,VWS V14.00,2013-07-08 04:46:00,
2013-07-08 00:51:00,74.4,73.8,29.83,East,88,0.0,1.0,98,0.00,,---,0.00,VWS V14.00,2013-07-08 04:51:00,
2013-07-08 00:56:00,74.2,73.6,29.83,East,88,0.0,1.0,98,0.00,,---,0.00,VWS V14.00,2013-07-08 04:56:00,
2013-07-08 01:01:00,74.2,73.6,29.83,East,88,0.0,1.0,98,0.00,,---,0.00,VWS V14.00,2013-07-08 05:01:00,
2013-07-08 01:06:00,74.2,73.6,29.83,East,88,0.0,0.0,98,0.00,,---,0.00,VWS V14.00,2013-07-08 05:06:00,
2013-07-08 01:11:00,74.2,73.9,29.83,East,88,0.0,0.0,99,0.00,,---,0.00,VWS V14.00,2013-07-08 05:11:00,
2013-07-08 01:16:00,74.0,73.7,29.84,East,88,0.0,0.0,99,0.00,,---,0.00,VWS V14.00,2013-07-08 05:16:00,
2013-07-08 01:21:00,74.0,73.7,29.84,East,88,0.0,0.0,99,0.00,,---,0.00,VWS V14.00,2013-07-08 05:21:00,
2013-07-08 01:26:00,74.0,73.7,29.84,East,88,0.0,0.0,99,0.00,,---,0.00,VWS V14.00,2013-07-08 05:26:00,
2013-07-08 01:31:00,74.0,73.7,29.84,East,88,0.0,0.0,99,0.00,,---,0.00,VWS V14.00,2013-07-08 05:31:00,
2013-07-08 01:36:00,73.9,73.6,29.84,East,88,0.0,0.0,99,0.00,,---,0.00,VWS V14.00,2013-07-08 05:36:00,
2013-07-08 01:41:00,73.9,73.6,29.84,East,88,0.0,0.0,99,0.00,,---,0.00,VWS V14.00,2013-07-08 05:41:00,
2013-07-08 01:46:00,73.9,73.6,29.84,East,88,0.0,0.0,99,0.00,,---,0.00,VWS V14.00,2013-07-08 05:46:00,
2013-07-08 01:51:00,73.9,73.6,29.84,East,88,0.0,0.0,99,0.00,,---,0.00,VWS V14.00,2013-07-08 05:51:00,
2013-07-08 01:56:00,73.9,73.6,29.84,East,88,0.0,0.0,99,0.00,,---,0.00,VWS V14.00,2013-07-08 05:56:00,
2013-07-08 02:01:00,73.9,73.6,29.84,East,88,0.0,0.0,99,0.00,,---,0.00,VWS V14.00,2013-07-08 06:01:00,
2013-07-08 02:06:00,73.9,73.6,29.84,East,88,0.0,0.0,99,0.00,,---,0.00,VWS V14.00,2013-07-08 06:06:00,
2013-07-08 02:11:00,73.9,73.6,29.84,East,88,0.0,0.0,99,0.00,,---,0.00,VWS V14.00,2013-07-08 06:11:00,
2013-07-08 02:16:00,73.9,73.6,29.84,East,88,0.0,0.0,99,0.00,,---,0.00,VWS V14.00,2013-07-08 06:16:00,
2013-07-08 02:21:00,73.9,73.6,29.84,East,88,0.0,0.0,99,0.00,,---,0.00,VWS V14.00,2013-07-08 06:21:00,
2013-07-08 02:26:00,73.9,73.6,29.84,East,88,0.0,0.0,99,0.00,,---,0.00,VWS V14.00,2013-07-08 06:26:00,
2013-07-08 02:31:00,73.9,73.6,29.84,East,88,0.0,0.0,99,0.00,,---,0.00,VWS V14.00,2013-07-08 06:31:00,
2013-07-08 02:36:00,73.9,73.6,29.84,East,88,0.0,0.0,99,0.00,,---,0.00,VWS V14.00,2013-07-08 06:36:00,
2013-07-08 02:41:00,73.9,73.6,29.84,East,88,0.0,0.0,99,0.00,,---,0.00,VWS V14.00,2013-07-08 06:41:00,
2013-07-08 02:46:00,73.7,73.4,29.84,East,88,0.0,0.0,99,0.00,,---,0.00,VWS V14.00,2013-07-08 06:46:00,
2013-07-08 02:51:00,73.7,73.4,29.84,East,88,0.0,0.0,99,0.00,,---,0.00,VWS V14.00,2013-07-08 06:51:00,
2013-07-08 02:56:00,73.7,73.4,29.84,East,88,0.0,0.0,99,0.00,,---,0.00,VWS V14.00,2013-07-08 06:56:00,
2013-07-08 03:01:00,73.7,73.4,29.84,East,88,0.0,0.0,99,0.00,,---,0.00,VWS V14.00,2013-07-08 07:01:00,
2013-07-08 03:07:00,73.7,73.4,29.84,East,88,0.0,0.0,99,0.00,,---,0.00,VWS V14.00,2013-07-08 07:07:00,
2013-07-08 03:11:00,73.7,73.4,29.84,East,88,0.0,0.0,99,0.00,,---,0.00,VWS V14.00,2013-07-08 07:11:00,
2013-07-08 03:16:00,73.7,73.4,29.84,East,88,0.0,1.0,99,0.00,,---,0.00,VWS V14.00,2013-07-08 07:16:00,
2013-07-08 03:21:00,73.7,73.4,29.84,East,88,0.0,1.0,99,0.00,,---,0.00,VWS V14.00,2013-07-08 07:21:00,
2013-07-08 03:26:00,73.7,73.4,29.84,East,89,0.0,1.0,99,0.00,,---,0.00,VWS V14.00,2013-07-08 07:26:00,
2013-07-08 03:31:00,73.7,73.4,29.84,East,89,0.0,1.0,99,0.00,,---,0.00,VWS V14.00,2013-07-08 07:31:00,
2013-07-08 03:36:00,73.7,73.4,29.84,East,89,0.0,0.0,99,0.00,,---,0.00,VWS V14.00,2013-07-08 07:36:00,
2013-07-08 03:41:00,73.7,73.4,29.84,East,89,0.0,0.0,99,0.00,,---,0.00,VWS V14.00,2013-07-08 07:41:00,
2013-07-08 03:46:00,73.5,73.2,29.83,East,89,0.0,0.0,99,0.00,,---,0.00,VWS V14.00,2013-07-08 07:46:00,
2013-07-08 03:51:00,73.5,73.2,29.83,East,89,0.0,1.0,99,0.00,,---,0.00,VWS V14.00,2013-07-08 07:51:00,
2013-07-08 03:56:00,73.3,73.0,29.83,East,89,0.0,1.0,99,0.00,,---,0.00,VWS V14.00,2013-07-08 07:56:00,
2013-07-08 04:01:00,73.3,73.0,29.83,East,89,0.0,1.0,99,0.00,,---,0.00,VWS V14.00,2013-07-08 08:01:00,
2013-07-08 04:06:00,73.2,72.9,29.83,East,89,0.0,0.0,99,0.00,,---,0.00,VWS V14.00,2013-07-08 08:06:00,
2013-07-08 04:11:00,73.2,72.9,29.83,East,89,0.0,0.0,99,0.00,,---,0.00,VWS V14.00,2013-07-08 08:11:00,
2013-07-08 04:16:00,73.0,72.7,29.83,East,89,0.0,0.0,99,0.00,,---,0.00,VWS V14.00,2013-07-08 08:16:00,
2013-07-08 04:21:00,73.0,72.7,29.83,East,89,0.0,0.0,99,0.00,,---,0.00,VWS V14.00,2013-07-08 08:21:00,
2013-07-08 04:26:00,73.0,72.7,29.83,East,89,0.0,0.0,99,0.00,,---,0.00,VWS V14.00,2013-07-08 08:26:00,
2013-07-08 04:31:00,73.0,72.7,29.83,SSE,167,0.0,2.0,99,0.00,,---,0.00,VWS V14.00,2013-07-08 08:31:00,
2013-07-08 04:36:00,73.2,72.9,29.83,SSE,167,0.0,0.0,99,0.00,,---,0.00,VWS V14.00,2013-07-08 08:36:00,
2013-07-08 04:41:00,73.2,72.9,29.83,SSE,167,0.0,1.0,99,0.00,,---,0.00,VWS V14.00,2013-07-08 08:41:00,
2013-07-08 04:46:00,73.2,72.9,29.83,SSE,167,0.0,1.0,99,0.00,,---,0.00,VWS V14.00,2013-07-08 08:46:00,
2013-07-08 04:51:00,73.2,72.9,29.83,SSE,167,0.0,1.0,99,0.00,,---,0.00,VWS V14.00,2013-07-08 08:51:00,
2013-07-08 04:56:00,73.2,72.9,29.83,SSE,167,0.0,1.0,99,0.00,,---,0.00,VWS V14.00,2013-07-08 08:56:00,
2013-07-08 05:01:00,73.2,72.9,29.83,SSE,167,0.0,1.0,99,0.00,,---,0.00,VWS V14.00,2013-07-08 09:01:00,
2013-07-08 05:06:00,73.2,72.6,29.83,SSE,167,0.0,0.0,98,0.00,,---,0.00,VWS V14.00,2013-07-08 09:06:00,
2013-07-08 05:11:00,73.2,72.6,29.83,SSE,167,0.0,1.0,98,0.00,,---,0.00,VWS V14.00,2013-07-08 09:11:00,
2013-07-08 05:16:00,73.3,72.7,29.83,SSE,167,0.0,1.0,98,0.00,,---,0.00,VWS V14.00,2013-07-08 09:16:00,
2013-07-08 05:21:00,73.2,72.6,29.83,SSE,167,0.0,1.0,98,0.00,,---,0.00,VWS V14.00,2013-07-08 09:21:00,
2013-07-08 05:26:00,73.2,72.6,29.83,SSE,167,0.0,1.0,98,0.00,,---,0.00,VWS V14.00,2013-07-08 09:26:00,
2013-07-08 05:31:00,73.2,72.6,29.83,SSE,167,0.0,1.0,98,0.00,,---,0.00,VWS V14.00,2013-07-08 09:31:00,
2013-07-08 05:36:00,73.0,72.4,29.83,SSE,167,0.0,1.0,98,0.00,,---,0.00,VWS V14.00,2013-07-08 09:36:00,
2013-07-08 05:41:00,73.0,72.4,29.83,SSE,167,0.0,1.0,98,0.00,,---,0.00,VWS V14.00,2013-07-08 09:41:00,
2013-07-08 05:46:00,73.0,72.4,29.84,SSE,167,0.0,1.0,98,0.00,,---,0.00,VWS V14.00,2013-07-08 09:46:00,
2013-07-08 05:51:00,72.8,72.2,29.84,SSE,167,0.0,1.0,98,0.00,,---,0.00,VWS V14.00,2013-07-08 09:51:00,
2013-07-08 05:56:00,72.8,72.2,29.84,SSE,167,0.0,1.0,98,0.00,,---,0.00,VWS V14.00,2013-07-08 09:56:00,
2013-07-08 06:02:00,72.8,72.2,29.84,SSE,167,0.0,1.0,98,0.00,,---,0.00,VWS V14.00,2013-07-08 10:02:00,
2013-07-08 06:07:00,72.8,72.2,29.84,SSE,167,0.0,1.0,98,0.00,,---,0.00,VWS V14.00,2013-07-08 10:07:00,
2013-07-08 06:12:00,72.8,72.2,29.84,SSE,167,0.0,1.0,98,0.00,,---,0.00,VWS V14.00,2013-07-08 10:12:00,
2013-07-08 06:17:00,72.8,72.2,29.84,SSE,167,0.0,1.0,98,0.00,,---,0.00,VWS V14.00,2013-07-08 10:17:00,
2013-07-08 06:22:00,72.8,72.2,29.84,SSE,167,0.0,1.0,98,0.00,,---,0.00,VWS V14.00,2013-07-08 10:22:00,
2013-07-08 06:27:00,72.8,72.2,29.84,SSE,167,0.0,1.0,98,0.00,,---,0.00,VWS V14.00,2013-07-08 10:27:00,
2013-07-08 06:32:00,72.8,72.2,29.84,SSE,167,0.0,1.0,98,0.00,,---,0.00,VWS V14.00,2013-07-08 10:32:00,
2013-07-08 06:36:00,72.8,72.2,29.84,SSE,167,0.0,0.0,98,0.00,,---,0.00,VWS V14.00,2013-07-08 10:36:00,
2013-07-08 06:42:00,73.0,72.4,29.84,SSE,167,0.0,0.0,98,0.00,,---,0.00,VWS V14.00,2013-07-08 10:42:00,
2013-07-08 06:47:00,73.0,72.4,29.85,SSE,167,0.0,0.0,98,0.00,,---,0.00,VWS V14.00,2013-07-08 10:47:00,
2013-07-08 06:52:00,73.2,72.6,29.85,SSE,167,0.0,0.0,98,0.00,,---,0.00,VWS V14.00,2013-07-08 10:52:00,
2013-07-08 06:57:00,73.2,72.6,29.85,WNW,282,0.0,2.0,98,0.00,,---,0.00,VWS V14.00,2013-07-08 10:57:00,
2013-07-08 07:02:00,73.3,72.7,29.85,WNW,282,0.0,2.0,98,0.00,,---,0.00,VWS V14.00,2013-07-08 11:02:00,
2013-07-08 07:07:00,73.5,72.9,29.85,West,274,0.0,2.0,98,0.00,,---,0.00,VWS V14.00,2013-07-08 11:07:00,
2013-07-08 07:12:00,73.5,72.6,29.85,West,278,0.0,2.0,97,0.00,,---,0.00,VWS V14.00,2013-07-08 11:12:00,
2013-07-08 07:17:00,73.7,72.5,29.85,West,270,0.0,3.0,96,0.00,,---,0.00,VWS V14.00,2013-07-08 11:17:00,
2013-07-08 07:22:00,73.9,72.4,29.85,WSW,248,0.0,3.0,95,0.00,,---,0.00,VWS V14.00,2013-07-08 11:22:00,
2013-07-08 07:27:00,74.0,72.5,29.85,SW,223,1.0,3.0,95,0.00,,---,0.00,VWS V14.00,2013-07-08 11:27:00,
2013-07-08 07:32:00,74.2,72.7,29.85,SW,229,0.0,3.0,95,0.00,,---,0.00,VWS V14.00,2013-07-08 11:32:00,
2013-07-08 07:37:00,74.4,72.6,29.85,WSW,248,0.0,3.0,94,0.00,,---,0.00,VWS V14.00,2013-07-08 11:37:00,
2013-07-08 07:42:00,74.7,72.6,29.85,SSW,200,0.0,3.0,93,0.00,,---,0.00,VWS V14.00,2013-07-08 11:42:00,
2013-07-08 07:47:00,74.9,72.1,29.86,SW,215,0.0,3.0,91,0.00,,---,0.00,VWS V14.00,2013-07-08 11:47:00,
2013-07-08 07:52:00,75.3,72.2,29.86,NNW,340,1.0,6.0,90,0.00,,---,0.00,VWS V14.00,2013-07-08 11:52:00,
2013-07-08 07:57:00,75.6,71.8,29.86,NNW,335,0.0,6.0,88,0.00,,---,0.00,VWS V14.00,2013-07-08 11:57:00,
2013-07-08 08:02:00,76.0,72.2,29.86,WNW,292,0.0,6.0,88,0.00,,---,0.00,VWS V14.00,2013-07-08 12:02:00,
2013-07-08 08:07:00,76.3,72.5,29.86,WNW,301,0.0,3.0,88,0.00,,---,0.00,VWS V14.00,2013-07-08 12:07:00,
2013-07-08 08:12:00,76.3,72.5,29.86,WNW,302,0.0,3.0,88,0.00,,---,0.00,VWS V14.00,2013-07-08 12:12:00,
2013-07-08 08:17:00,76.3,72.5,29.86,WNW,302,1.0,3.0,88,0.00,,---,0.00,VWS V14.00,2013-07-08 12:17:00,
2013-07-08 08:22:00,76.5,72.3,29.86,NW,313,0.0,7.0,87,0.00,,---,0.00,VWS V14.00,2013-07-08 12:22:00,
2013-07-08 08:27:00,76.8,72.6,29.86,NNW,339,0.0,7.0,87,0.00,,---,0.00,VWS V14.00,2013-07-08 12:27:00,
2013-07-08 08:32:00,77.2,72.3,29.86,North,6,0.0,7.0,85,0.00,,---,0.00,VWS V14.00,2013-07-08 12:32:00,
2013-07-08 08:37:00,77.6,73.1,29.86,East,80,0.0,2.0,86,0.00,,---,0.00,VWS V14.00,2013-07-08 12:37:00,
2013-07-08 08:42:00,78.1,73.6,29.86,ESE,116,0.0,2.0,86,0.00,,---,0.00,VWS V14.00,2013-07-08 12:42:00,
2013-07-08 08:47:00,78.3,73.4,29.86,SW,226,0.0,3.0,85,0.00,,---,0.00,VWS V14.00,2013-07-08 12:47:00,
2013-07-08 08:52:00,78.6,73.7,29.86,SE,127,0.0,3.0,85,0.00,,---,0.00,VWS V14.00,2013-07-08 12:52:00,
2013-07-08 08:57:00,79.0,73.8,29.86,SW,223,2.0,3.0,84,0.00,,---,0.00,VWS V14.00,2013-07-08 12:57:00,
2013-07-08 09:02:00,79.4,73.8,29.86,WSW,248,0.0,3.0,83,0.00,,---,0.00,VWS V14.00,2013-07-08 13:02:00,
2013-07-08 09:07:00,79.6,74.3,29.86,West,278,0.0,3.0,84,0.00,,---,0.00,VWS V14.00,2013-07-08 13:07:00,
2013-07-08 09:12:00,79.4,74.5,29.86,West,264,0.0,3.0,85,0.00,,---,0.00,VWS V14.00,2013-07-08 13:12:00,
2013-07-08 09:17:00,79.4,74.2,29.86,North,1,0.0,3.0,84,0.00,,---,0.00,VWS V14.00,2013-07-08 13:17:00,
2013-07-08 09:22:00,79.2,73.6,29.86,SW,217,1.0,3.0,83,0.00,,---,0.00,VWS V14.00,2013-07-08 13:22:00,
2013-07-08 09:27:00,79.2,73.9,29.86,SSW,205,0.0,3.0,84,0.00,,---,0.00,VWS V14.00,2013-07-08 13:27:00,
2013-07-08 09:32:00,79.4,73.8,29.87,SW,219,1.0,1.0,83,0.00,,---,0.00,VWS V14.00,2013-07-08 13:32:00,
2013-07-08 09:37:00,79.4,73.8,29.87,SW,222,0.0,1.0,83,0.00,,---,0.00,VWS V14.00,2013-07-08 13:37:00,
2013-07-08 09:42:00,79.6,74.0,29.87,SW,222,0.0,1.0,83,0.00,,---,0.00,VWS V14.00,2013-07-08 13:42:00,
2013-07-08 09:47:00,79.6,74.0,29.87,North,4,1.0,5.0,83,0.00,,---,0.00,VWS V14.00,2013-07-08 13:47:00,
2013-07-08 09:52:00,79.8,73.8,29.87,North,352,0.0,6.0,82,0.00,,---,0.00,VWS V14.00,2013-07-08 13:52:00,
2013-07-08 09:57:00,79.8,74.2,29.87,WSW,246,0.0,6.0,83,0.00,,---,0.00,VWS V14.00,2013-07-08 13:57:00,
2013-07-08 10:02:00,79.9,73.9,29.87,NNW,346,0.0,0.0,82,0.00,,---,0.00,VWS V14.00,2013-07-08 14:02:00,
2013-07-08 10:07:00,80.1,74.5,29.87,SE,137,0.0,2.0,83,0.00,,---,0.00,VWS V14.00,2013-07-08 14:07:00,
2013-07-08 10:12:00,80.5,74.9,29.87,SE,138,0.0,2.0,83,0.00,,---,0.00,VWS V14.00,2013-07-08 14:12:00,
2013-07-08 10:17:00,80.9,74.9,29.87,SE,141,0.0,2.0,82,0.00,,---,0.00,VWS V14.00,2013-07-08 14:17:00,
2013-07-08 10:22:00,81.1,74.7,29.87,South,169,0.0,2.0,81,0.00,,---,0.00,VWS V14.00,2013-07-08 14:22:00,
2013-07-08 10:27:00,81.1,74.3,29.87,North,8,0.0,3.0,80,0.00,,---,0.00,VWS V14.00,2013-07-08 14:27:00,
2013-07-08 10:32:00,81.1,74.7,29.87,West,280,0.0,3.0,81,0.00,,---,0.00,VWS V14.00,2013-07-08 14:32:00,
2013-07-08 10:37:00,81.2,74.4,29.87,SSW,202,0.0,3.0,80,0.00,,---,0.00,VWS V14.00,2013-07-08 14:37:00,
2013-07-08 10:42:00,81.8,74.3,29.87,NNE,27,0.0,3.0,78,0.00,,---,0.00,VWS V14.00,2013-07-08 14:42:00,
2013-07-08 10:48:00,82.4,74.1,29.87,North,359,1.0,3.0,76,0.00,,---,0.00,VWS V14.00,2013-07-08 14:48:00,
2013-07-08 10:53:00,82.6,74.7,29.87,NE,48,0.0,3.0,77,0.00,,---,0.00,VWS V14.00,2013-07-08 14:53:00,
2013-07-08 10:58:00,82.6,74.7,29.87,WSW,240,0.0,3.0,77,0.00,,---,0.00,VWS V14.00,2013-07-08 14:58:00,
2013-07-08 11:03:00,83.8,74.2,29.87,SW,226,0.0,0.0,73,0.00,,---,0.00,VWS V14.00,2013-07-08 15:03:00,
2013-07-08 11:08:00,83.6,75.2,29.87,WSW,256,0.0,2.0,76,0.00,,---,0.00,VWS V14.00,2013-07-08 15:08:00,
2013-07-08 11:13:00,83.4,74.7,29.87,North,0,0.0,2.0,75,0.00,,---,0.00,VWS V14.00,2013-07-08 15:13:00,
2013-07-08 11:18:00,83.4,75.1,29.87,North,359,0.0,2.0,76,0.00,,---,0.00,VWS V14.00,2013-07-08 15:18:00,
2013-07-08 11:23:00,84.0,74.8,29.87,North,359,0.0,2.0,74,0.00,,---,0.00,VWS V14.00,2013-07-08 15:23:00,
2013-07-08 11:28:00,84.0,74.8,29.87,North,357,0.0,3.0,74,0.00,,---,0.00,VWS V14.00,2013-07-08 15:28:00,
2013-07-08 11:33:00,84.7,74.7,29.88,West,263,0.0,1.0,72,0.00,,---,0.00,VWS V14.00,2013-07-08 15:33:00,
2013-07-08 11:38:00,84.9,74.4,29.88,South,172,1.0,2.0,71,0.00,,---,0.00,VWS V14.00,2013-07-08 15:38:00,
2013-07-08 11:43:00,85.1,74.6,29.88,NE,35,2.0,3.0,71,0.00,,---,0.00,VWS V14.00,2013-07-08 15:43:00,
2013-07-08 11:48:00,85.3,74.4,29.87,NNE,24,0.0,3.0,70,0.00,,---,0.00,VWS V14.00,2013-07-08 15:48:00,
2013-07-08 11:53:00,85.9,75.0,29.87,North,1,0.0,3.0,70,0.00,,---,0.00,VWS V14.00,2013-07-08 15:53:00,
2013-07-08 11:58:00,87.4,73.7,29.87,SW,234,0.0,4.0,64,0.00,,---,0.00,VWS V14.00,2013-07-08 15:58:00,
2013-07-08 12:03:00,87.2,74.9,29.87,WSW,254,0.0,1.0,67,0.00,,---,0.00,VWS V14.00,2013-07-08 16:03:00,
2013-07-08 12:08:00,87.4,74.7,29.87,SW,233,1.0,3.0,66,0.00,,---,0.00,VWS V14.00,2013-07-08 16:08:00,
2013-07-08 12:13:00,87.4,73.7,29.87,WNW,289,0.0,3.0,64,0.00,,---,0.00,VWS V14.00,2013-07-08 16:13:00,
2013-07-08 12:18:00,87.2,74.9,29.87,SW,233,0.0,3.0,67,0.00,,---,0.00,VWS V14.00,2013-07-08 16:18:00,
2013-07-08 12:23:00,87.0,74.7,29.87,SW,233,0.0,3.0,67,0.00,,---,0.00,VWS V14.00,2013-07-08 16:23:00,
2013-07-08 12:28:00,87.6,75.7,29.87,SW,233,0.0,3.0,68,0.00,,---,0.00,VWS V14.00,2013-07-08 16:28:00,
2013-07-08 12:33:00,87.4,75.1,29.87,SW,234,0.0,1.0,67,0.00,,---,0.00,VWS V14.00,2013-07-08 16:33:00,
2013-07-08 12:38:00,87.0,75.6,29.87,SW,234,0.0,1.0,69,0.00,,---,0.00,VWS V14.00,2013-07-08 16:38:00,
2013-07-08 12:43:00,87.4,74.7,29.87,NNE,21,2.0,5.0,66,0.00,,---,0.00,VWS V14.00,2013-07-08 16:43:00,
2013-07-08 12:48:00,87.4,75.1,29.87,SE,141,0.0,6.0,67,0.00,,---,0.00,VWS V14.00,2013-07-08 16:48:00,
2013-07-08 12:53:00,87.8,75.0,29.87,SW,222,0.0,6.0,66,0.00,,---,0.00,VWS V14.00,2013-07-08 16:53:00,
2013-07-08 12:58:00,88.2,73.6,29.87,SW,223,3.0,6.0,62,0.00,,---,0.00,VWS V14.00,2013-07-08 16:58:00,
2013-07-08 13:03:00,88.6,74.9,29.87,WSW,256,0.0,1.0,64,0.00,,---,0.00,VWS V14.00,2013-07-08 17:03:00,
2013-07-08 13:08:00,89.0,74.3,29.87,WSW,256,1.0,8.0,62,0.00,,---,0.00,VWS V14.00,2013-07-08 17:08:00,
2013-07-08 13:13:00,89.5,73.8,29.87,North,357,0.0,8.0,60,0.00,,---,0.00,VWS V14.00,2013-07-08 17:13:00,
2013-07-08 13:18:00,89.5,73.8,29.87,South,182,2.0,8.0,60,0.00,,---,0.00,VWS V14.00,2013-07-08 17:18:00,
2013-07-08 13:24:00,89.7,73.5,29.87,NE,54,0.0,8.0,59,0.00,,---,0.00,VWS V14.00,2013-07-08 17:24:00,
2013-07-08 13:29:00,89.7,71.4,29.87,NNE,14,1.0,8.0,55,0.00,,---,0.00,VWS V14.00,2013-07-08 17:29:00,
2013-07-08 13:34:00,89.5,73.8,29.86,NNW,330,0.0,1.0,60,0.00,,---,0.00,VWS V14.00,2013-07-08 17:34:00,
2013-07-08 13:39:00,89.5,71.2,29.86,NNE,31,0.0,12.0,55,0.00,,---,0.00,VWS V14.00,2013-07-08 17:39:00,
2013-07-08 13:44:00,89.0,72.8,29.86,WNW,282,1.0,12.0,59,0.00,,---,0.00,VWS V14.00,2013-07-08 17:44:00,
2013-07-08 13:49:00,88.8,71.1,29.87,WNW,294,0.0,12.0,56,0.00,,---,0.00,VWS V14.00,2013-07-08 17:49:00,
2013-07-08 13:54:00,89.0,70.8,29.87,NNW,342,2.0,12.0,55,0.00,,---,0.00,VWS V14.00,2013-07-08 17:54:00,
2013-07-08 13:59:00,88.6,70.9,29.87,NNE,23,0.0,12.0,56,0.00,,---,0.00,VWS V14.00,2013-07-08 17:59:00,
2013-07-08 14:04:00,88.8,72.1,29.87,West,268,0.0,8.0,58,0.00,,---,0.00,VWS V14.00,2013-07-08 18:04:00,
2013-07-08 14:09:00,88.8,71.1,29.87,SW,226,3.0,10.0,56,0.00,,---,0.00,VWS V14.00,2013-07-08 18:09:00,
2013-07-08 14:14:00,89.0,72.3,29.87,SSW,202,0.0,10.0,58,0.00,,---,0.00,VWS V14.00,2013-07-08 18:14:00,
2013-07-08 14:19:00,89.3,69.4,29.87,NE,35,0.0,10.0,52,0.00,,---,0.00,VWS V14.00,2013-07-08 18:19:00,
2013-07-08 14:24:00,90.1,71.2,29.87,NNW,336,0.0,10.0,54,0.00,,---,0.00,VWS V14.00,2013-07-08 18:24:00,
2013-07-08 14:29:00,89.9,70.5,29.87,NNE,23,0.0,10.0,53,0.00,,---,0.00,VWS V14.00,2013-07-08 18:29:00,
2013-07-08 14:35:00,89.9,69.9,29.87,NNW,337,0.0,3.0,52,0.00,,---,0.00,VWS V14.00,2013-07-08 18:35:00,
2013-07-08 14:40:00,90.1,71.2,29.87,West,272,3.0,8.0,54,0.00,,---,0.00,VWS V14.00,2013-07-08 18:40:00,
2013-07-08 14:45:00,89.9,71.6,29.87,NE,37,1.0,8.0,55,0.00,,---,0.00,VWS V14.00,2013-07-08 18:45:00,
2013-07-08 14:51:00,89.7,71.4,29.87,WNW,287,5.0,8.0,55,0.00,,---,0.00,VWS V14.00,2013-07-08 18:51:00,
2013-07-08 14:56:00,89.7,72.4,29.87,West,270,0.0,8.0,57,0.00,,---,0.00,VWS V14.00,2013-07-08 18:56:00,
2013-07-08 15:01:00,90.1,70.1,29.87,North,1,0.0,8.0,52,0.00,,---,0.00,VWS V14.00,2013-07-08 19:01:00,
2013-07-08 15:06:00,89.9,71.0,29.87,WNW,296,1.0,6.0,54,0.00,,---,0.00,VWS V14.00,2013-07-08 19:06:00,
2013-07-08 15:11:00,88.8,72.1,29.87,WSW,258,0.0,6.0,58,0.00,,---,0.00,VWS V14.00,2013-07-08 19:11:00,
2013-07-08 15:17:00,88.0,70.9,29.87,SSW,202,1.0,6.0,57,0.00,,---,0.00,VWS V14.00,2013-07-08 19:17:00,
2013-07-08 15:22:00,87.6,71.5,29.87,West,275,1.0,6.0,59,0.00,,---,0.00,VWS V14.00,2013-07-08 19:22:00,
2013-07-08 15:27:00,87.2,72.1,29.87,SE,137,0.0,6.0,61,0.00,,---,0.00,VWS V14.00,2013-07-08 19:27:00,
2013-07-08 15:32:00,87.2,73.1,29.86,SSE,157,0.0,6.0,63,0.00,,---,0.00,VWS V14.00,2013-07-08 19:32:00,
2013-07-08 15:38:00,86.7,73.1,29.86,SSW,195,1.0,2.0,64,0.00,,---,0.00,VWS V14.00,2013-07-08 19:38:00,
2013-07-08 15:44:00,86.5,72.9,29.86,SSW,199,0.0,2.0,64,0.00,,---,0.00,VWS V14.00,2013-07-08 19:44:00,
2013-07-08 15:49:00,87.2,71.6,29.87,East,83,0.0,2.0,60,0.00,,---,0.00,VWS V14.00,2013-07-08 19:49:00,
2013-07-08 15:54:00,88.8,73.6,29.87,WNW,298,0.0,2.0,61,0.00,,---,0.00,VWS V14.00,2013-07-08 19:54:00,
2013-07-08 15:59:00,89.7,74.0,29.87,South,182,0.0,3.0,60,0.00,,---,0.00,VWS V14.00,2013-07-08 19:59:00,
2013-07-08 16:04:00,89.9,71.6,29.86,WSW,237,0.0,1.0,55,0.00,,---,0.00,VWS V14.00,2013-07-08 20:04:00,
2013-07-08 16:10:00,90.1,69.6,29.86,NNE,32,0.0,4.0,51,0.00,,---,0.00,VWS V14.00,2013-07-08 20:10:00,
2013-07-08 16:15:00,90.7,70.1,29.86,NNE,23,0.0,4.0,51,0.00,,---,0.00,VWS V14.00,2013-07-08 20:15:00,
2013-07-08 16:20:00,91.4,71.3,29.86,West,261,0.0,4.0,52,0.00,,---,0.00,VWS V14.00,2013-07-08 20:20:00,
2013-07-08 16:25:00,91.6,73.7,29.86,South,175,0.0,4.0,56,0.00,,---,0.00,VWS V14.00,2013-07-08 20:25:00,
2013-07-08 16:30:00,91.0,72.6,29.86,SW,217,0.0,4.0,55,0.00,,---,0.00,VWS V14.00,2013-07-08 20:30:00,
2013-07-08 16:35:00,90.5,70.5,29.86,SW,217,0.0,0.0,52,0.00,,---,0.00,VWS V14.00,2013-07-08 20:35:00,
2013-07-08 16:40:00,90.5,71.1,29.86,SW,217,0.0,1.0,53,0.00,,---,0.00,VWS V14.00,2013-07-08 20:40:00,
2013-07-08 16:46:00,90.7,70.7,29.86,West,274,0.0,2.0,52,0.00,,---,0.00,VWS V14.00,2013-07-08 20:46:00,
2013-07-08 16:51:00,90.5,72.1,29.86,WNW,284,0.0,2.0,55,0.00,,---,0.00,VWS V14.00,2013-07-08 20:51:00,
2013-07-08 16:56:00,89.0,73.8,29.86,WNW,289,1.0,2.0,61,0.00,,---,0.00,VWS V14.00,2013-07-08 20:56:00,
2013-07-08 17:01:00,88.0,75.2,29.86,South,191,0.0,2.0,66,0.00,,---,0.00,VWS V14.00,2013-07-08 21:01:00,
2013-07-08 17:06:00,88.0,75.7,29.86,WSW,243,0.0,1.0,67,0.00,,---,0.00,VWS V14.00,2013-07-08 21:06:00,
2013-07-08 17:12:00,88.4,74.7,29.86,WSW,243,0.0,1.0,64,0.00,,---,0.00,VWS V14.00,2013-07-08 21:12:00,
2013-07-08 17:17:00,87.6,75.3,29.86,South,179,0.0,1.0,67,0.00,,---,0.00,VWS V14.00,2013-07-08 21:17:00,
2013-07-08 17:22:00,86.3,75.8,29.86,SSE,155,0.0,1.0,71,0.00,,---,0.00,VWS V14.00,2013-07-08 21:22:00,
2013-07-08 17:27:00,85.3,75.7,29.86,South,176,0.0,1.0,73,0.00,,---,0.00,VWS V14.00,2013-07-08 21:27:00,
2013-07-08 17:32:00,84.9,74.9,29.86,SSE,168,0.0,1.0,72,0.00,,---,0.00,VWS V14.00,2013-07-08 21:32:00,
2013-07-08 17:37:00,84.5,74.9,29.86,ESE,113,0.0,3.0,73,0.00,,---,0.00,VWS V14.00,2013-07-08 21:37:00,
2013-07-08 17:43:00,84.5,75.3,29.86,ESE,103,0.0,3.0,74,0.00,,---,0.00,VWS V14.00,2013-07-08 21:43:00,
2013-07-08 17:48:00,84.3,75.1,29.86,East,96,0.0,3.0,74,0.00,,---,0.00,VWS V14.00,2013-07-08 21:48:00,
2013-07-08 17:53:00,83.4,74.7,29.86,East,88,0.0,3.0,75,0.00,,---,0.00,VWS V14.00,2013-07-08 21:53:00,
2013-07-08 17:58:00,82.8,74.5,29.86,East,82,0.0,3.0,76,0.00,,---,0.00,VWS V14.00,2013-07-08 21:58:00,
2013-07-08 18:03:00,82.4,74.1,29.86,East,80,0.0,0.0,76,0.00,,---,0.00,VWS V14.00,2013-07-08 22:03:00,
2013-07-08 18:08:00,82.2,74.3,29.86,ENE,78,0.0,1.0,77,0.00,,---,0.00,VWS V14.00,2013-07-08 22:08:00,
2013-07-08 18:13:00,82.4,74.5,29.86,East,83,0.0,1.0,77,0.00,,---,0.00,VWS V14.00,2013-07-08 22:13:00,
2013-07-08 18:19:00,82.4,74.1,29.87,East,83,0.0,1.0,76,0.00,,---,0.00,VWS V14.00,2013-07-08 22:19:00,
2013-07-08 18:24:00,82.2,74.3,29.87,East,82,0.0,1.0,77,0.00,,---,0.00,VWS V14.00,2013-07-08 22:24:00,
2013-07-08 18:29:00,81.8,74.3,29.87,East,82,0.0,1.0,78,0.00,,---,0.00,VWS V14.00,2013-07-08 22:29:00,
2013-07-08 18:34:00,81.2,74.1,29.87,SW,224,0.0,2.0,79,0.00,,---,0.00,VWS V14.00,2013-07-08 22:34:00,
2013-07-08 18:39:00,80.9,73.8,29.87,WSW,250,0.0,2.0,79,0.00,,---,0.00,VWS V14.00,2013-07-08 22:39:00,
2013-07-08 18:44:00,80.5,73.8,29.87,WSW,251,0.0,2.0,80,0.00,,---,0.00,VWS V14.00,2013-07-08 22:44:00,
2013-07-08 18:50:00,80.1,73.0,29.88,WSW,251,0.0,2.0,79,0.00,,---,0.00,VWS V14.00,2013-07-08 22:50:00,
2013-07-08 18:55:00,79.8,73.1,29.88,SSW,208,0.0,2.0,80,0.00,,---,0.00,VWS V14.00,2013-07-08 22:55:00,
2013-07-08 19:00:00,79.4,73.1,29.88,SW,216,0.0,2.0,81,0.00,,---,0.00,VWS V14.00,2013-07-08 23:00:00,
2013-07-08 19:06:00,78.6,72.7,29.88,SSW,210,0.0,1.0,82,0.00,,---,0.00,VWS V14.00,2013-07-08 23:06:00,
2013-07-08 19:11:00,78.3,72.4,29.88,SW,220,0.0,1.0,82,0.00,,---,0.00,VWS V14.00,2013-07-08 23:11:00,
2013-07-08 19:16:00,77.6,71.7,29.88,SW,220,0.0,1.0,82,0.00,,---,0.00,VWS V14.00,2013-07-08 23:16:00,
2013-07-08 19:21:00,76.8,70.9,29.89,SSW,205,0.0,1.0,82,0.00,,---,0.00,VWS V14.00,2013-07-08 23:21:00,
2013-07-08 19:27:00,75.8,70.3,29.89,SSW,202,0.0,1.0,83,0.00,,---,0.00,VWS V14.00,2013-07-08 23:27:00,
2013-07-08 19:32:00,74.7,69.6,29.90,SW,224,0.0,0.0,84,0.00,,---,0.00,VWS V14.00,2013-07-08 23:32:00,
2013-07-08 19:37:00,73.7,68.9,29.90,ENE,68,0.0,1.0,85,0.00,,---,0.00,VWS V14.00,2013-07-08 23:37:00,
2013-07-08 19:42:00,73.0,68.9,29.90,ENE,66,0.0,1.0,87,0.00,,---,0.00,VWS V14.00,2013-07-08 23:42:00,
2013-07-08 19:47:00,72.5,68.8,29.91,NNE,25,0.0,1.0,88,0.00,,---,0.00,VWS V14.00,2013-07-08 23:47:00,
2013-07-08 19:52:00,72.1,68.3,29.91,NNE,25,0.0,1.0,88,0.00,,---,0.00,VWS V14.00,2013-07-08 23:52:00,
2013-07-08 19:58:00,71.5,67.8,29.91,North,0,0.0,2.0,88,0.00,,---,0.00,VWS V14.00,2013-07-08 23:58:00,
2013-07-08 20:03:00,71.1,67.7,29.92,SSW,198,0.0,1.0,89,0.00,,---,0.00,VWS V14.00,2013-07-09 00:03:00,
2013-07-08 20:08:00,70.8,67.4,29.92,SSW,199,0.0,1.0,89,0.00,,---,0.00,VWS V14.00,2013-07-09 00:08:00,
2013-07-08 20:13:00,70.4,67.3,29.92,SSW,199,0.0,1.0,90,0.00,,---,0.00,VWS V14.00,2013-07-09 00:13:00,
2013-07-08 20:19:00,70.1,67.0,29.93,SSW,199,0.0,1.0,90,0.00,,---,0.00,VWS V14.00,2013-07-09 00:19:00,
2013-07-08 20:24:00,69.9,67.5,29.93,SSW,199,0.0,1.0,92,0.00,,---,0.00,VWS V14.00,2013-07-09 00:24:00,
2013-07-08 20:29:00,69.8,67.7,29.93,SSW,198,0.0,1.0,93,0.00,,---,0.00,VWS V14.00,2013-07-09 00:29:00,
2013-07-08 20:35:00,69.4,67.6,29.94,SSW,198,0.0,0.0,94,0.00,,---,0.00,VWS V14.00,2013-07-09 00:35:00,
2013-07-08 20:40:00,68.9,67.4,29.94,SSW,198,0.0,0.0,95,0.00,,---,0.00,VWS V14.00,2013-07-09 00:40:00,
2013-07-08 20:45:00,68.6,67.4,29.94,SSW,196,0.0,1.0,96,0.00,,---,0.00,VWS V14.00,2013-07-09 00:45:00,
2013-07-08 20:51:00,68.6,67.7,29.95,SSW,196,0.0,1.0,97,0.00,,---,0.00,VWS V14.00,2013-07-09 00:51:00,
2013-07-08 20:56:00,68.4,67.8,29.95,SSW,195,0.0,1.0,98,0.00,,---,0.00,VWS V14.00,2013-07-09 00:56:00,
2013-07-08 21:01:00,68.3,67.7,29.95,SSW,195,0.0,1.0,98,0.00,,---,0.00,VWS V14.00,2013-07-09 01:01:00,
2013-07-08 21:06:00,68.1,67.5,29.95,SSW,195,0.0,0.0,98,0.00,,---,0.00,VWS V14.00,2013-07-09 01:06:00,
2013-07-08 21:12:00,68.1,67.8,29.95,SSW,193,0.0,0.0,99,0.00,,---,0.00,VWS V14.00,2013-07-09 01:12:00,
2013-07-08 21:17:00,68.1,67.8,29.94,SSW,193,0.0,1.0,99,0.00,,---,0.00,VWS V14.00,2013-07-09 01:17:00,
2013-07-08 21:22:00,68.1,67.8,29.94,SSW,193,0.0,1.0,99,0.00,,---,0.00,VWS V14.00,2013-07-09 01:22:00,
2013-07-08 21:27:00,68.1,67.8,29.94,SSW,193,0.0,1.0,99,0.00,,---,0.00,VWS V14.00,2013-07-09 01:27:00,
2013-07-08 21:33:00,67.9,67.6,29.94,SSW,193,0.0,0.0,99,0.00,,---,0.00,VWS V14.00,2013-07-09 01:33:00,
2013-07-08 21:38:00,67.8,67.5,29.94,SSW,193,0.0,1.0,99,0.00,,---,0.00,VWS V14.00,2013-07-09 01:38:00,
2013-07-08 21:43:00,67.6,67.3,29.94,SSW,193,0.0,1.0,99,0.00,,---,0.00,VWS V14.00,2013-07-09 01:43:00,
2013-07-08 21:49:00,67.6,67.3,29.95,SSW,193,0.0,1.0,99,0.00,,---,0.00,VWS V14.00,2013-07-09 01:49:00,
2013-07-08 21:54:00,67.6,67.3,29.95,SSW,192,0.0,1.0,99,0.00,,---,0.00,VWS V14.00,2013-07-09 01:54:00,
2013-07-08 21:59:00,67.6,67.3,29.95,SSW,192,0.0,1.0,99,0.00,,---,0.00,VWS V14.00,2013-07-09 01:59:00,
2013-07-08 22:04:00,67.4,67.1,29.95,SSW,192,0.0,0.0,99,0.00,,---,0.00,VWS V14.00,2013-07-09 02:04:00,
2013-07-08 22:09:00,67.4,67.4,29.95,SSW,192,0.0,1.0,100,0.00,,---,0.00,VWS V14.00,2013-07-09 02:09:00,
2013-07-08 22:14:00,67.4,67.4,29.95,SSW,192,0.0,1.0,100,0.00,,---,0.00,VWS V14.00,2013-07-09 02:14:00,
2013-07-08 22:19:00,67.4,67.4,29.96,SSW,192,0.0,1.0,100,0.00,,---,0.00,VWS V14.00,2013-07-09 02:19:00,
2013-07-08 22:24:00,67.3,67.3,29.96,SSW,192,0.0,1.0,100,0.00,,---,0.00,VWS V14.00,2013-07-09 02:24:00,
2013-07-08 22:29:00,67.3,67.3,29.96,SSW,192,0.0,1.0,100,0.00,,---,0.00,VWS V14.00,2013-07-09 02:29:00,
2013-07-08 22:34:00,67.1,67.1,29.96,SSW,192,0.0,0.0,100,0.00,,---,0.00,VWS V14.00,2013-07-09 02:34:00,
2013-07-08 22:39:00,67.1,67.1,29.96,SSW,192,0.0,1.0,100,0.00,,---,0.00,VWS V14.00,2013-07-09 02:39:00,
2013-07-08 22:45:00,67.1,67.1,29.96,SSW,192,0.0,1.0,100,0.00,,---,0.00,VWS V14.00,2013-07-09 02:45:00,
2013-07-08 22:50:00,67.1,67.1,29.97,SSW,192,0.0,1.0,100,0.00,,---,0.00,VWS V14.00,2013-07-09 02:50:00,
2013-07-08 22:55:00,67.1,67.1,29.97,SSW,192,0.0,1.0,100,0.00,,---,0.00,VWS V14.00,2013-07-09 02:55:00,
2013-07-08 23:00:00,66.9,66.6,29.97,South,191,0.0,1.0,99,0.00,,---,0.00,VWS V14.00,2013-07-09 03:00:00,
2013-07-08 23:06:00,66.9,66.6,29.97,South,191,0.0,0.0,99,0.00,,---,0.00,VWS V14.00,2013-07-09 03:06:00,
2013-07-08 23:11:00,66.8,66.5,29.97,South,191,0.0,1.0,99,0.00,,---,0.00,VWS V14.00,2013-07-09 03:11:00,
2013-07-08 23:16:00,66.9,66.6,29.97,South,191,0.0,1.0,99,0.00,,---,0.00,VWS V14.00,2013-07-09 03:16:00,
2013-07-08 23:22:00,66.9,66.6,29.97,South,191,0.0,1.0,99,0.00,,---,0.00,VWS V14.00,2013-07-09 03:22:00,
2013-07-08 23:27:00,66.9,66.6,29.97,South,191,0.0,1.0,99,0.00,,---,0.00,VWS V14.00,2013-07-09 03:27:00,
2013-07-08 23:32:00,66.9,66.6,29.97,South,191,0.0,1.0,99,0.00,,---,0.00,VWS V14.00,2013-07-09 03:32:00,
2013-07-08 23:37:00,66.9,66.6,29.97,South,191,0.0,0.0,99,0.00,,---,0.00,VWS V14.00,2013-07-09 03:37:00,
2013-07-08 23:42:00,66.8,66.5,29.97,South,191,0.0,0.0,99,0.00,,---,0.00,VWS V14.00,2013-07-09 03:42:00,
2013-07-08 23:47:00,66.9,66.6,29.97,South,191,0.0,0.0,99,0.00,,---,0.00,VWS V14.00,2013-07-09 03:47:00,
2013-07-08 23:52:00,66.9,66.6,29.97,South,191,0.0,0.0,99,0.00,,---,0.00,VWS V14.00,2013-07-09 03:52:00,
2013-07-08 23:58:00,66.9,66.9,29.97,South,191,0.0,0.0,100,0.00,,---,0.00,VWS V14.00,2013-07-09 03:58:00,